sensor_id;sensor_type;location;lat;lon;timestamp;P1;durP1;ratioP1;P2;durP2;ratioP2
58512;SDS011;44302;47.914;10.642;2023-04-05T07:34:30;7.40;;;5.33;;
58512;SDS011;44302;47.914;10.642;2023-04-05T07:38:23;7.83;;;4.93;;
58512;SDS011;44302;47.914;10.642;2023-04-05T07:41:58;5.00;;;4.50;;
58512;SDS011;44302;47.914;10.642;2023-04-05T07:45:14;11.03;;;4.80;;
58512;SDS011;44302;47.914;10.642;2023-04-05T07:48:49;6.27;;;4.80;;
58512;SDS011;44302;47.914;10.642;2023-04-05T07:52:46;6.73;;;4.60;;
58512;SDS011;44302;47.914;10.642;2023-04-05T07:55:12;5.50;;;3.60;;
58512;SDS011;44302;47.914;10.642;2023-04-05T07:57:37;8.10;;;4.83;;
58512;SDS011;44302;47.914;10.642;2023-04-05T08:00:03;5.30;;;3.50;;
58512;SDS011;44302;47.914;10.642;2023-04-05T08:02:35;6.23;;;3.77;;
58512;SDS011;44302;47.914;10.642;2023-04-05T08:05:01;7.77;;;3.50;;
58512;SDS011;44302;47.914;10.642;2023-04-05T08:07:27;6.30;;;3.57;;
58512;SDS011;44302;47.914;10.642;2023-04-05T08:09:53;6.23;;;3.77;;
58512;SDS011;44302;47.914;10.642;2023-04-05T08:12:21;8.53;;;3.57;;
58512;SDS011;44302;47.914;10.642;2023-04-05T08:14:47;3.93;;;3.30;;
58512;SDS011;44302;47.914;10.642;2023-04-05T08:17:14;5.37;;;3.30;;
58512;SDS011;44302;47.914;10.642;2023-04-05T08:19:40;6.97;;;2.93;;
58512;SDS011;44302;47.914;10.642;2023-04-05T08:22:05;4.33;;;3.27;;
58512;SDS011;44302;47.914;10.642;2023-04-05T08:24:31;3.30;;;2.87;;
58512;SDS011;44302;47.914;10.642;2023-04-05T08:26:57;6.37;;;3.10;;
58512;SDS011;44302;47.914;10.642;2023-04-05T08:29:22;4.37;;;2.93;;
58512;SDS011;44302;47.914;10.642;2023-04-05T08:31:48;3.97;;;2.80;;
58512;SDS011;44302;47.914;10.642;2023-04-05T08:34:14;3.53;;;2.97;;
58512;SDS011;44302;47.914;10.642;2023-04-05T08:36:39;4.10;;;3.30;;
58512;SDS011;44302;47.914;10.642;2023-04-05T08:39:05;3.93;;;3.23;;
58512;SDS011;44302;47.914;10.642;2023-04-05T08:41:34;5.00;;;3.30;;
58512;SDS011;44302;47.914;10.642;2023-04-05T08:44:04;4.77;;;3.20;;
58512;SDS011;44302;47.914;10.642;2023-04-05T08:46:34;10.27;;;3.73;;
58512;SDS011;44302;47.914;10.642;2023-04-05T08:49:06;4.17;;;3.33;;
58512;SDS011;44302;47.914;10.642;2023-04-05T08:51:34;3.50;;;3.07;;
58512;SDS011;44302;47.914;10.642;2023-04-05T08:54:03;4.47;;;3.50;;
58512;SDS011;44302;47.914;10.642;2023-04-05T08:56:33;4.93;;;3.47;;
58512;SDS011;44302;47.914;10.642;2023-04-05T08:59:03;3.30;;;3.00;;
58512;SDS011;44302;47.914;10.642;2023-04-05T09:01:30;4.57;;;3.10;;
58512;SDS011;44302;47.914;10.642;2023-04-05T09:04:06;3.50;;;3.03;;
58512;SDS011;44302;47.914;10.642;2023-04-05T09:06:36;12.47;;;3.33;;
58512;SDS011;44302;47.914;10.642;2023-04-05T09:09:04;4.47;;;3.00;;
58512;SDS011;44302;47.914;10.642;2023-04-05T09:11:32;3.27;;;2.80;;
58512;SDS011;44302;47.914;10.642;2023-04-05T09:14:01;4.77;;;3.10;;
58512;SDS011;44302;47.914;10.642;2023-04-05T09:16:30;5.77;;;3.30;;
58512;SDS011;44302;47.914;10.642;2023-04-05T09:19:03;4.80;;;3.03;;
58512;SDS011;44302;47.914;10.642;2023-04-05T09:21:29;3.63;;;3.07;;
58512;SDS011;44302;47.914;10.642;2023-04-05T09:24:17;3.13;;;2.67;;
58512;SDS011;44302;47.914;10.642;2023-04-05T09:27:09;5.70;;;2.97;;
58512;SDS011;44302;47.914;10.642;2023-04-05T09:29:40;4.63;;;3.10;;
58512;SDS011;44302;47.914;10.642;2023-04-05T09:32:08;4.93;;;3.00;;
58512;SDS011;44302;47.914;10.642;2023-04-05T09:34:35;5.03;;;3.23;;
58512;SDS011;44302;47.914;10.642;2023-04-05T09:37:01;4.17;;;2.80;;
58512;SDS011;44302;47.914;10.642;2023-04-05T09:39:48;4.53;;;2.77;;
58512;SDS011;44302;47.914;10.642;2023-04-05T09:42:16;4.63;;;3.13;;
58512;SDS011;44302;47.914;10.642;2023-04-05T09:44:53;5.47;;;3.33;;
58512;SDS011;44302;47.914;10.642;2023-04-05T09:47:32;5.00;;;2.63;;
58512;SDS011;44302;47.914;10.642;2023-04-05T09:50:01;4.10;;;3.00;;
58512;SDS011;44302;47.914;10.642;2023-04-05T09:52:30;4.03;;;2.77;;
58512;SDS011;44302;47.914;10.642;2023-04-05T09:55:00;3.93;;;2.97;;
58512;SDS011;44302;47.914;10.642;2023-04-05T09:57:28;3.63;;;2.83;;
58512;SDS011;44302;47.914;10.642;2023-04-05T09:59:57;4.30;;;3.33;;
58512;SDS011;44302;47.914;10.642;2023-04-05T10:02:23;4.27;;;3.40;;
58512;SDS011;44302;47.914;10.642;2023-04-05T10:04:49;3.83;;;2.87;;
58512;SDS011;44302;47.914;10.642;2023-04-05T10:07:16;4.37;;;2.93;;
58512;SDS011;44302;47.914;10.642;2023-04-05T10:09:45;3.83;;;3.20;;
58512;SDS011;44302;47.914;10.642;2023-04-05T10:12:23;3.73;;;2.70;;
58512;SDS011;44302;47.914;10.642;2023-04-05T10:14:50;4.77;;;3.50;;
58512;SDS011;44302;47.914;10.642;2023-04-05T10:22:28;3.73;;;3.23;;
58512;SDS011;44302;47.914;10.642;2023-04-05T10:25:24;4.03;;;3.30;;
58512;SDS011;44302;47.914;10.642;2023-04-05T10:28:25;10.93;;;3.27;;
58512;SDS011;44302;47.914;10.642;2023-04-05T10:31:17;5.37;;;3.10;;
58512;SDS011;44302;47.914;10.642;2023-04-05T10:34:09;5.27;;;3.40;;
58512;SDS011;44302;47.914;10.642;2023-04-05T10:36:58;3.67;;;3.03;;
58512;SDS011;44302;47.914;10.642;2023-04-05T10:39:27;4.43;;;3.20;;
58512;SDS011;44302;47.914;10.642;2023-04-05T10:42:19;3.97;;;3.37;;
58512;SDS011;44302;47.914;10.642;2023-04-05T10:44:51;4.10;;;3.37;;
58512;SDS011;44302;47.914;10.642;2023-04-05T10:47:24;4.07;;;3.13;;
58512;SDS011;44302;47.914;10.642;2023-04-05T10:49:53;6.83;;;3.53;;
58512;SDS011;44302;47.914;10.642;2023-04-05T10:52:21;4.40;;;3.50;;
58512;SDS011;44302;47.914;10.642;2023-04-05T10:54:47;5.90;;;3.53;;
58512;SDS011;44302;47.914;10.642;2023-04-05T10:57:13;3.90;;;3.40;;
58512;SDS011;44302;47.914;10.642;2023-04-05T10:59:44;4.40;;;3.67;;
58512;SDS011;44302;47.914;10.642;2023-04-05T11:02:10;3.97;;;3.60;;
58512;SDS011;44302;47.914;10.642;2023-04-05T11:04:36;4.20;;;3.40;;
58512;SDS011;44302;47.914;10.642;2023-04-05T11:07:25;4.23;;;3.13;;
58512;SDS011;44302;47.914;10.642;2023-04-05T11:09:51;5.43;;;3.60;;
58512;SDS011;44302;47.914;10.642;2023-04-05T11:13:01;4.77;;;3.23;;
58512;SDS011;44302;47.914;10.642;2023-04-05T11:18:03;4.73;;;3.97;;
58512;SDS011;44302;47.914;10.642;2023-04-05T11:20:46;5.40;;;3.10;;
58512;SDS011;44302;47.914;10.642;2023-04-05T11:23:17;4.10;;;3.60;;
58512;SDS011;44302;47.914;10.642;2023-04-05T11:25:46;4.50;;;3.30;;
58512;SDS011;44302;47.914;10.642;2023-04-05T11:28:22;5.80;;;3.87;;
58512;SDS011;44302;47.914;10.642;2023-04-05T11:30:55;4.47;;;3.67;;
58512;SDS011;44302;47.914;10.642;2023-04-05T11:33:52;5.63;;;3.87;;
58512;SDS011;44302;47.914;10.642;2023-04-05T11:42:00;3.97;;;3.57;;
58512;SDS011;44302;47.914;10.642;2023-04-05T11:44:27;4.63;;;3.73;;
58512;SDS011;44302;47.914;10.642;2023-04-05T11:46:56;4.13;;;3.70;;
58512;SDS011;44302;47.914;10.642;2023-04-05T11:49:22;3.77;;;3.20;;
58512;SDS011;44302;47.914;10.642;2023-04-05T11:51:52;3.90;;;3.50;;
58512;SDS011;44302;47.914;10.642;2023-04-05T11:54:28;4.43;;;3.57;;
58512;SDS011;44302;47.914;10.642;2023-04-05T11:56:57;5.13;;;3.10;;
58512;SDS011;44302;47.914;10.642;2023-04-05T11:59:41;4.33;;;3.93;;
58512;SDS011;44302;47.914;10.642;2023-04-05T12:02:08;3.93;;;3.53;;
58512;SDS011;44302;47.914;10.642;2023-04-05T12:04:34;4.50;;;3.50;;
58512;SDS011;44302;47.914;10.642;2023-04-05T12:07:07;5.07;;;4.17;;
58512;SDS011;44302;47.914;10.642;2023-04-05T12:09:59;4.70;;;3.50;;
58512;SDS011;44302;47.914;10.642;2023-04-05T12:12:35;3.63;;;3.33;;
58512;SDS011;44302;47.914;10.642;2023-04-05T12:15:02;4.60;;;4.20;;
58512;SDS011;44302;47.914;10.642;2023-04-05T12:17:45;5.13;;;3.67;;
58512;SDS011;44302;47.914;10.642;2023-04-05T12:20:14;5.83;;;3.63;;
58512;SDS011;44302;47.914;10.642;2023-04-05T12:22:48;7.63;;;3.60;;
58512;SDS011;44302;47.914;10.642;2023-04-05T12:25:16;6.43;;;3.33;;
58512;SDS011;44302;47.914;10.642;2023-04-05T12:27:42;3.93;;;3.30;;
58512;SDS011;44302;47.914;10.642;2023-04-05T12:30:15;3.77;;;3.27;;
58512;SDS011;44302;47.914;10.642;2023-04-05T12:32:52;4.20;;;3.27;;
58512;SDS011;44302;47.914;10.642;2023-04-05T12:37:56;3.97;;;3.57;;
58512;SDS011;44302;47.914;10.642;2023-04-05T12:40:23;3.60;;;3.20;;
58512;SDS011;44302;47.914;10.642;2023-04-05T12:42:49;4.10;;;3.43;;
58512;SDS011;44302;47.914;10.642;2023-04-05T12:45:15;4.30;;;3.20;;
58512;SDS011;44302;47.914;10.642;2023-04-05T12:47:49;3.83;;;3.27;;
58512;SDS011;44302;47.914;10.642;2023-04-05T12:50:17;4.00;;;3.20;;
58512;SDS011;44302;47.914;10.642;2023-04-05T12:52:59;4.07;;;3.43;;
58512;SDS011;44302;47.914;10.642;2023-04-05T12:55:27;3.70;;;3.40;;
58512;SDS011;44302;47.914;10.642;2023-04-05T12:57:54;4.10;;;3.20;;
58512;SDS011;44302;47.914;10.642;2023-04-05T13:00:25;3.83;;;3.43;;
58512;SDS011;44302;47.914;10.642;2023-04-05T13:02:52;3.37;;;2.93;;
58512;SDS011;44302;47.914;10.642;2023-04-05T13:05:20;8.63;;;3.60;;
58512;SDS011;44302;47.914;10.642;2023-04-05T13:07:46;4.70;;;3.37;;
58512;SDS011;44302;47.914;10.642;2023-04-05T13:10:12;3.50;;;3.20;;
58512;SDS011;44302;47.914;10.642;2023-04-05T13:12:38;4.10;;;3.20;;
58512;SDS011;44302;47.914;10.642;2023-04-05T13:15:04;5.67;;;3.57;;
58512;SDS011;44302;47.914;10.642;2023-04-05T13:17:31;3.60;;;3.30;;
58512;SDS011;44302;47.914;10.642;2023-04-05T13:19:56;4.70;;;3.60;;
58512;SDS011;44302;47.914;10.642;2023-04-05T13:22:22;4.67;;;3.43;;
58512;SDS011;44302;47.914;10.642;2023-04-05T13:24:47;4.97;;;3.27;;
58512;SDS011;44302;47.914;10.642;2023-04-05T13:27:13;8.43;;;3.50;;
58512;SDS011;44302;47.914;10.642;2023-04-05T13:29:39;4.10;;;3.33;;
58512;SDS011;44302;47.914;10.642;2023-04-05T13:32:04;6.30;;;3.00;;
58512;SDS011;44302;47.914;10.642;2023-04-05T13:34:30;5.03;;;2.80;;
58512;SDS011;44302;47.914;10.642;2023-04-05T13:36:56;3.10;;;2.83;;
58512;SDS011;44302;47.914;10.642;2023-04-05T13:39:22;4.10;;;2.90;;
58512;SDS011;44302;47.914;10.642;2023-04-05T13:41:47;4.30;;;3.40;;
58512;SDS011;44302;47.914;10.642;2023-04-05T13:44:13;3.60;;;3.20;;
58512;SDS011;44302;47.914;10.642;2023-04-05T13:46:39;4.27;;;3.43;;
58512;SDS011;44302;47.914;10.642;2023-04-05T13:49:04;3.53;;;3.23;;
58512;SDS011;44302;47.914;10.642;2023-04-05T13:51:30;3.67;;;3.03;;
58512;SDS011;44302;47.914;10.642;2023-04-05T13:53:58;3.73;;;3.30;;
58512;SDS011;44302;47.914;10.642;2023-04-05T13:56:24;4.83;;;3.23;;
58512;SDS011;44302;47.914;10.642;2023-04-05T13:58:49;3.97;;;3.50;;
58512;SDS011;44302;47.914;10.642;2023-04-05T14:01:15;3.30;;;2.97;;
58512;SDS011;44302;47.914;10.642;2023-04-05T14:03:41;3.47;;;3.17;;
58512;SDS011;44302;47.914;10.642;2023-04-05T14:06:06;4.37;;;2.83;;
58512;SDS011;44302;47.914;10.642;2023-04-05T14:08:32;4.23;;;3.30;;
58512;SDS011;44302;47.914;10.642;2023-04-05T14:10:58;4.73;;;3.37;;
58512;SDS011;44302;47.914;10.642;2023-04-05T14:13:24;4.30;;;3.70;;
58512;SDS011;44302;47.914;10.642;2023-04-05T14:15:49;5.33;;;4.23;;
58512;SDS011;44302;47.914;10.642;2023-04-05T14:18:16;4.80;;;3.87;;
58512;SDS011;44302;47.914;10.642;2023-04-05T14:20:42;3.63;;;3.33;;
58512;SDS011;44302;47.914;10.642;2023-04-05T14:23:07;4.33;;;3.60;;
58512;SDS011;44302;47.914;10.642;2023-04-05T14:25:33;3.57;;;3.27;;
58512;SDS011;44302;47.914;10.642;2023-04-05T14:27:59;3.80;;;3.40;;
58512;SDS011;44302;47.914;10.642;2023-04-05T14:30:25;4.10;;;3.63;;
58512;SDS011;44302;47.914;10.642;2023-04-05T14:32:50;3.97;;;3.57;;
58512;SDS011;44302;47.914;10.642;2023-04-05T14:35:16;5.07;;;3.80;;
58512;SDS011;44302;47.914;10.642;2023-04-05T14:37:42;5.80;;;4.23;;
58512;SDS011;44302;47.914;10.642;2023-04-05T14:40:08;4.37;;;3.67;;
58512;SDS011;44302;47.914;10.642;2023-04-05T14:42:34;4.30;;;3.90;;
58512;SDS011;44302;47.914;10.642;2023-04-05T14:45:00;6.07;;;3.37;;
58512;SDS011;44302;47.914;10.642;2023-04-05T14:47:25;6.30;;;3.70;;
58512;SDS011;44302;47.914;10.642;2023-04-05T14:49:51;4.40;;;4.00;;
58512;SDS011;44302;47.914;10.642;2023-04-05T14:52:17;7.27;;;3.57;;
58512;SDS011;44302;47.914;10.642;2023-04-05T14:54:42;6.60;;;4.30;;
58512;SDS011;44302;47.914;10.642;2023-04-05T14:57:09;5.00;;;4.50;;
58512;SDS011;44302;47.914;10.642;2023-04-05T14:59:35;6.43;;;3.93;;
58512;SDS011;44302;47.914;10.642;2023-04-05T15:02:00;4.43;;;4.03;;
58512;SDS011;44302;47.914;10.642;2023-04-05T15:04:26;4.27;;;3.87;;
58512;SDS011;44302;47.914;10.642;2023-04-05T15:06:52;6.13;;;4.07;;
58512;SDS011;44302;47.914;10.642;2023-04-05T15:09:18;4.87;;;3.87;;
58512;SDS011;44302;47.914;10.642;2023-04-05T15:11:44;5.67;;;4.50;;
58512;SDS011;44302;47.914;10.642;2023-04-05T15:14:10;4.73;;;4.23;;
58512;SDS011;44302;47.914;10.642;2023-04-05T15:16:36;4.80;;;4.07;;
58512;SDS011;44302;47.914;10.642;2023-04-05T15:19:02;4.33;;;3.93;;
58512;SDS011;44302;47.914;10.642;2023-04-05T15:21:28;4.60;;;4.20;;
58512;SDS011;44302;47.914;10.642;2023-04-05T15:23:54;5.60;;;4.33;;
58512;SDS011;44302;47.914;10.642;2023-04-05T15:26:19;4.73;;;4.17;;
58512;SDS011;44302;47.914;10.642;2023-04-05T15:28:45;5.27;;;4.77;;
58512;SDS011;44302;47.914;10.642;2023-04-05T15:31:11;5.90;;;4.40;;
58512;SDS011;44302;47.914;10.642;2023-04-05T15:33:37;8.27;;;4.47;;
58512;SDS011;44302;47.914;10.642;2023-04-05T15:36:03;4.83;;;4.43;;
58512;SDS011;44302;47.914;10.642;2023-04-05T15:38:28;4.97;;;4.47;;
58512;SDS011;44302;47.914;10.642;2023-04-05T15:40:54;5.00;;;4.50;;
58512;SDS011;44302;47.914;10.642;2023-04-05T15:43:21;6.33;;;4.60;;
58512;SDS011;44302;47.914;10.642;2023-04-05T15:45:48;6.20;;;4.63;;
58512;SDS011;44302;47.914;10.642;2023-04-05T15:48:14;6.80;;;4.73;;
58512;SDS011;44302;47.914;10.642;2023-04-05T15:50:40;5.27;;;4.33;;
58512;SDS011;44302;47.914;10.642;2023-04-05T15:53:06;5.80;;;4.70;;
58512;SDS011;44302;47.914;10.642;2023-04-05T15:55:32;6.23;;;4.80;;
58512;SDS011;44302;47.914;10.642;2023-04-05T15:57:58;5.97;;;4.17;;
58512;SDS011;44302;47.914;10.642;2023-04-05T16:00:24;5.00;;;4.50;;
58512;SDS011;44302;47.914;10.642;2023-04-05T16:02:52;6.10;;;4.67;;
58512;SDS011;44302;47.914;10.642;2023-04-05T16:05:19;7.73;;;4.53;;
58512;SDS011;44302;47.914;10.642;2023-04-05T16:07:45;6.43;;;4.90;;
58512;SDS011;44302;47.914;10.642;2023-04-05T16:10:10;5.23;;;4.63;;
58512;SDS011;44302;47.914;10.642;2023-04-05T16:12:36;7.33;;;4.97;;
58512;SDS011;44302;47.914;10.642;2023-04-05T16:15:02;6.77;;;5.20;;
58512;SDS011;44302;47.914;10.642;2023-04-05T16:17:28;8.23;;;4.90;;
58512;SDS011;44302;47.914;10.642;2023-04-05T16:19:54;7.00;;;5.47;;
58512;SDS011;44302;47.914;10.642;2023-04-05T16:22:20;6.50;;;4.80;;
58512;SDS011;44302;47.914;10.642;2023-04-05T16:24:45;6.13;;;5.10;;
58512;SDS011;44302;47.914;10.642;2023-04-05T16:27:12;7.27;;;5.37;;
58512;SDS011;44302;47.914;10.642;2023-04-05T16:29:37;7.17;;;5.17;;
58512;SDS011;44302;47.914;10.642;2023-04-05T16:32:03;6.50;;;5.13;;
58512;SDS011;44302;47.914;10.642;2023-04-05T16:34:29;10.23;;;5.53;;
58512;SDS011;44302;47.914;10.642;2023-04-05T16:36:55;8.73;;;6.27;;
58512;SDS011;44302;47.914;10.642;2023-04-05T16:39:20;7.43;;;6.03;;
58512;SDS011;44302;47.914;10.642;2023-04-05T16:41:46;9.50;;;6.17;;
58512;SDS011;44302;47.914;10.642;2023-04-05T16:44:12;7.93;;;5.13;;
58512;SDS011;44302;47.914;10.642;2023-04-05T16:46:38;7.90;;;5.30;;
58512;SDS011;44302;47.914;10.642;2023-04-05T16:49:04;6.57;;;5.13;;
58512;SDS011;44302;47.914;10.642;2023-04-05T16:51:30;6.70;;;5.47;;
